Terminal Aerodrome Forecast
Issued by NWS Caribou, ME

Home | Current Version | Previous Version | Text Only | Print | Product List | Glossary On
Versions: 1 2 3 4 5 6 7 8 9 10 11 12 13 14 15 16
416
FTUS41 KCAR 252320
TAFCAR
TAF
KCAR 252320Z 2600/2624 24005KT P6SM BKN050 OVC100
     FM260600 20004KT 4SM BR OVC015
      TEMPO 2609/2612 OVC007
     FM261500 23008KT P6SM BKN050
     FM262300 32007KT P6SM SCT200=

USA.gov is the U.S. government's official web portal to all federal, state and local government web resources and services.